Time;durP1;ratioP1;P1;durP2;ratioP2;P2;SDS_P1;SDS_P2;PMS_P1;PMS_P2;Temp;Humidity;BMP_temperature;BMP_pressure;BME280_temperature;BME280_humidity;BME280_pressure;Samples;Min_cycle;Max_cycle;Signal;HPM_P1;HPM_P2
2021/05/25 00:00:04;;;;;;;12.32;5.36;;;;;;;;;;368004;109;1961941;-72
2021/05/25 00:01:11;;;;;;;11.73;5.74;;;;;;;;;;370157;108;1962926;-73
2021/05/25 00:02:17;;;;;;;11.65;5.88;;;;;;;;;;370550;109;1962923;-72
2021/05/25 00:03:22;;;;;;;11.87;6.05;;;;;;;;;;370056;109;1960854;-71
2021/05/25 00:04:28;;;;;;;10.28;5.08;;;;;;;;;;371063;109;1961987;-73
2021/05/25 00:05:33;;;;;;;10.99;5.17;;;;;;;;;;368934;109;1964126;-73
2021/05/25 00:06:39;;;;;;;8.04;4.54;;;;;;;;;;323226;109;2764996;-72
2021/05/25 00:07:44;;;;;;;9.17;4.03;;;;;;;;;;302547;109;2187938;-73
2021/05/25 00:08:49;;;;;;;10.51;4.67;;;;;;;;;;314724;109;2096872;-71
2021/05/25 00:09:54;;;;;;;10.43;4.32;;;;;;;;;;309180;109;2147909;-73
2021/05/25 00:10:59;;;;;;;9.04;4.24;;;;;;;;;;323052;109;2020013;-72
2021/05/25 00:12:10;;;;;;;9.67;3.76;;;;;;;;;;387376;106;1983915;-72
2021/05/25 00:13:15;;;;;;;9.50;4.01;;;;;;;;;;368617;109;1963015;-73
2021/05/25 00:14:21;;;;;;;8.38;3.66;;;;;;;;;;368305;109;1961951;-73
2021/05/25 00:15:27;;;;;;;10.08;3.76;;;;;;;;;;367288;109;1962062;-74
2021/05/25 00:16:45;;;;;;;7.46;2.93;;;;;;;;;;391642;104;1987970;-73
2021/05/25 00:17:51;;;;;;;9.21;3.75;;;;;;;;;;375002;107;1964929;-73
2021/05/25 00:18:56;;;;;;;9.44;3.74;;;;;;;;;;373462;107;1961945;-72
2021/05/25 00:20:09;;;;;;;7.39;3.30;;;;;;;;;;400680;101;1985944;-74
2021/05/25 00:21:14;;;;;;;6.79;3.40;;;;;;;;;;333143;105;2033917;-73
2021/05/25 00:22:19;;;;;;;8.33;3.53;;;;;;;;;;341286;107;1962938;-73
2021/05/25 00:23:24;;;;;;;9.13;3.91;;;;;;;;;;337712;107;1961894;-71
2021/05/25 00:24:29;;;;;;;8.64;3.77;;;;;;;;;;328966;105;2037867;-72
2021/05/25 00:25:35;;;;;;;8.69;4.33;;;;;;;;;;330967;105;2031936;-73
2021/05/25 00:26:42;;;;;;;7.08;3.59;;;;;;;;;;373110;105;1962027;-73
2021/05/25 00:27:48;;;;;;;7.33;3.38;;;;;;;;;;381450;105;1962972;-74
2021/05/25 00:28:54;;;;;;;6.63;3.14;;;;;;;;;;381098;105;1964031;-73
2021/05/25 00:30:00;;;;;;;7.56;3.14;;;;;;;;;;339133;105;2667953;-72
2021/05/25 00:31:05;;;;;;;10.42;2.94;;;;;;;;;;344769;107;1962023;-73
2021/05/25 00:32:10;;;;;;;7.04;2.92;;;;;;;;;;342794;106;1964008;-72
2021/05/25 00:33:15;;;;;;;8.41;2.92;;;;;;;;;;348164;105;1963026;-73
2021/05/25 00:34:27;;;;;;;8.59;3.76;;;;;;;;;;382955;106;2072028;-73
2021/05/25 00:35:39;;;;;;;7.09;3.24;;;;;;;;;;369898;108;1960889;-73
2021/05/25 00:36:49;;;;;;;8.76;2.88;;;;;;;;;;396605;104;1984818;-73
2021/05/25 00:37:54;;;;;;;8.13;3.02;;;;;;;;;;370923;108;1961863;-73
2021/05/25 00:39:00;;;;;;;7.71;2.99;;;;;;;;;;343872;108;2442025;-73
2021/05/25 00:40:06;;;;;;;7.81;2.96;;;;;;;;;;342024;108;1963938;-72
2021/05/25 00:41:11;;;;;;;7.06;3.34;;;;;;;;;;367426;108;1962986;-73
2021/05/25 00:42:16;;;;;;;8.44;3.32;;;;;;;;;;369049;108;1962050;-73
2021/05/25 00:43:22;;;;;;;5.64;2.63;;;;;;;;;;371268;108;1961976;-72
2021/05/25 00:44:27;;;;;;;5.03;2.47;;;;;;;;;;369823;108;1962043;-73
2021/05/25 00:45:32;;;;;;;5.98;3.11;;;;;;;;;;371118;108;1961970;-73
2021/05/25 00:46:39;;;;;;;7.34;3.03;;;;;;;;;;370904;108;1963004;-74
2021/05/25 00:47:52;;;;;;;4.87;2.42;;;;;;;;;;379921;106;1985821;-72
2021/05/25 00:48:57;;;;;;;6.48;3.20;;;;;;;;;;364839;110;1960932;-73
2021/05/25 00:50:10;;;;;;;5.88;2.80;;;;;;;;;;357570;112;1961994;-74
2021/05/25 00:51:24;;;;;;;8.06;2.71;;;;;;;;;;395357;103;1985931;-74
2021/05/25 00:52:29;;;;;;;7.86;3.06;;;;;;;;;;377566;107;1961976;-74
2021/05/25 00:53:35;;;;;;;7.76;3.06;;;;;;;;;;306309;107;2217046;-72
2021/05/25 00:54:40;;;;;;;8.92;3.03;;;;;;;;;;323258;105;2070938;-71
2021/05/25 00:55:52;;;;;;;6.07;3.27;;;;;;;;;;389220;106;1985924;-72
2021/05/25 00:56:58;;;;;;;6.99;2.93;;;;;;;;;;370071;108;1961961;-72
2021/05/25 00:58:04;;;;;;;8.39;3.26;;;;;;;;;;361207;110;1961950;-73
2021/05/25 00:59:10;;;;;;;4.74;2.50;;;;;;;;;;360827;109;1962025;-73
2021/05/25 01:00:23;;;;;;;5.51;3.00;;;;;;;;;;323811;107;2643959;-73
2021/05/25 01:01:28;;;;;;;6.51;3.06;;;;;;;;;;358145;112;1961959;-72
2021/05/25 01:02:34;;;;;;;10.40;2.82;;;;;;;;;;355860;112;1961934;-73
2021/05/25 01:03:41;;;;;;;9.63;3.32;;;;;;;;;;307687;114;2819008;-72
2021/05/25 01:04:46;;;;;;;6.89;2.87;;;;;;;;;;294465;112;2187889;-72
2021/05/25 01:06:00;;;;;;;7.24;3.06;;;;;;;;;;392860;104;1986996;-73
2021/05/25 01:07:06;;;;;;;9.03;3.05;;;;;;;;;;322657;107;2867711;-72
2021/05/25 01:08:17;;;;;;;7.75;3.48;;;;;;;;;;382609;106;2077479;-72
2021/05/25 01:09:22;;;;;;;6.67;3.37;;;;;;;;;;368887;107;1970009;-72
2021/05/25 01:10:50;;;;;;;8.46;3.33;;;;;;;;;;297984;108;2229940;-72
2021/05/25 01:12:02;;;;;;;8.84;2.83;;;;;;;;;;393639;104;1986909;-74
2021/05/25 01:13:10;;;;;;;8.89;3.39;;;;;;;;;;369080;107;1962031;-74
2021/05/25 01:14:15;;;;;;;14.29;3.35;;;;;;;;;;369400;108;1961955;-73
2021/05/25 01:15:22;;;;;;;12.47;3.76;;;;;;;;;;320750;109;2690000;-73
2021/05/25 01:16:27;;;;;;;6.55;2.92;;;;;;;;;;364322;109;1962958;-72
2021/05/25 01:17:33;;;;;;;8.17;3.68;;;;;;;;;;370762;107;1961916;-74
2021/05/25 01:18:38;;;;;;;5.01;2.83;;;;;;;;;;371591;107;1962935;-74
2021/05/25 01:19:43;;;;;;;6.46;3.17;;;;;;;;;;367467;107;1962021;-72
2021/05/25 01:20:49;;;;;;;5.62;2.64;;;;;;;;;;368105;107;1962040;-73
2021/05/25 01:21:55;;;;;;;6.56;3.31;;;;;;;;;;371027;107;1960986;-73
2021/05/25 01:23:02;;;;;;;7.41;3.06;;;;;;;;;;361457;107;2944893;-72
2021/05/25 01:24:07;;;;;;;7.52;3.56;;;;;;;;;;346464;107;1961963;-72
2021/05/25 01:25:13;;;;;;;6.26;3.44;;;;;;;;;;370280;107;1960941;-72
2021/05/25 01:26:19;;;;;;;6.84;3.03;;;;;;;;;;371661;108;1961907;-73
2021/05/25 01:27:24;;;;;;;7.71;3.19;;;;;;;;;;370966;107;1961953;-73
2021/05/25 01:28:29;;;;;;;6.11;2.88;;;;;;;;;;371614;107;1961923;-72
2021/05/25 01:29:41;;;;;;;7.44;3.56;;;;;;;;;;384587;103;2966920;-73
2021/05/25 01:30:48;;;;;;;5.66;3.48;;;;;;;;;;324642;105;2038983;-72
2021/05/25 01:31:53;;;;;;;12.58;4.37;;;;;;;;;;372817;107;1962036;-73
2021/05/25 01:32:59;;;;;;;13.42;5.17;;;;;;;;;;372445;108;1961912;-74
2021/05/25 01:34:04;;;;;;;10.44;4.79;;;;;;;;;;370899;106;1961935;-74
2021/05/25 01:35:10;;;;;;;9.46;4.52;;;;;;;;;;373381;108;1961940;-74
2021/05/25 01:36:16;;;;;;;9.27;4.16;;;;;;;;;;334103;108;1962109;-73
2021/05/25 01:37:23;;;;;;;7.69;3.64;;;;;;;;;;372804;108;1961872;-73
2021/05/25 01:38:28;;;;;;;9.42;4.22;;;;;;;;;;371636;108;1962093;-73
2021/05/25 01:39:33;;;;;;;7.31;3.94;;;;;;;;;;370842;108;1961923;-70
2021/05/25 01:40:41;;;;;;;9.36;4.23;;;;;;;;;;373347;108;1963981;-72
2021/05/25 01:41:48;;;;;;;8.22;4.05;;;;;;;;;;309152;108;2166928;-72
2021/05/25 01:42:53;;;;;;;7.74;3.77;;;;;;;;;;374558;106;1961979;-72
2021/05/25 01:43:58;;;;;;;10.88;4.54;;;;;;;;;;371531;108;1964930;-72
2021/05/25 01:45:05;;;;;;;7.86;3.93;;;;;;;;;;372397;108;1963011;-73
2021/05/25 01:46:11;;;;;;;7.80;4.12;;;;;;;;;;337160;106;2617933;-72
2021/05/25 01:47:23;;;;;;;9.23;4.66;;;;;;;;;;389400;104;2070730;-73
2021/05/25 01:48:28;;;;;;;10.72;4.56;;;;;;;;;;368405;108;1962980;-73
2021/05/25 01:49:33;;;;;;;9.04;3.92;;;;;;;;;;371729;107;1961986;-74
2021/05/25 01:50:40;;;;;;;10.14;3.70;;;;;;;;;;371577;109;1961049;-73
2021/05/25 01:51:49;;;;;;;8.90;4.34;;;;;;;;;;369897;108;1962062;-73
2021/05/25 01:53:00;;;;;;;9.52;3.69;;;;;;;;;;371061;109;1961954;-73
2021/05/25 01:54:06;;;;;;;9.85;3.89;;;;;;;;;;336194;108;2890011;-72
2021/05/25 01:55:12;;;;;;;7.85;3.77;;;;;;;;;;323975;108;2014997;-73
2021/05/25 01:56:20;;;;;;;10.04;5.29;;;;;;;;;;371405;108;1962006;-73
2021/05/25 01:57:25;;;;;;;9.84;5.07;;;;;;;;;;371289;109;1961803;-73
2021/05/25 01:58:37;;;;;;;10.43;6.52;;;;;;;;;;360138;103;2080798;-71
2021/05/25 01:59:42;;;;;;;10.74;6.47;;;;;;;;;;337918;105;1960907;-72
2021/05/25 02:00:49;;;;;;;12.03;6.64;;;;;;;;;;367573;105;1961937;-72
2021/05/25 02:01:54;;;;;;;11.74;7.14;;;;;;;;;;374146;105;1961962;-74
2021/05/25 02:02:59;;;;;;;11.47;7.17;;;;;;;;;;377364;105;1961955;-72
2021/05/25 02:04:04;;;;;;;12.85;7.28;;;;;;;;;;372005;107;1961932;-73
2021/05/25 02:05:11;;;;;;;11.92;6.31;;;;;;;;;;373766;106;1962002;-72
2021/05/25 02:06:23;;;;;;;9.29;4.79;;;;;;;;;;389314;106;1985916;-73
2021/05/25 02:07:28;;;;;;;9.22;4.71;;;;;;;;;;371140;107;1964048;-73
2021/05/25 02:08:33;;;;;;;10.02;5.15;;;;;;;;;;372564;107;1962022;-73
2021/05/25 02:09:38;;;;;;;10.62;5.41;;;;;;;;;;372354;107;1962003;-73
2021/05/25 02:10:47;;;;;;;9.74;5.36;;;;;;;;;;372169;107;1962949;-73
2021/05/25 02:11:52;;;;;;;8.95;4.43;;;;;;;;;;316041;107;2090960;-73
2021/05/25 02:12:59;;;;;;;9.63;5.35;;;;;;;;;;339331;107;1961957;-74
2021/05/25 02:14:11;;;;;;;11.82;5.36;;;;;;;;;;387412;106;1985940;-74
2021/05/25 02:15:17;;;;;;;9.74;5.22;;;;;;;;;;359102;109;2918058;-73
2021/05/25 02:16:22;;;;;;;9.29;5.50;;;;;;;;;;358869;107;1962033;-74
2021/05/25 02:17:27;;;;;;;8.43;5.50;;;;;;;;;;362285;108;1961952;-73
2021/05/25 02:18:35;;;;;;;10.39;5.31;;;;;;;;;;371176;108;1961979;-73
2021/05/25 02:19:41;;;;;;;9.66;4.69;;;;;;;;;;372059;108;1962031;-72
2021/05/25 02:20:48;;;;;;;6.38;3.84;;;;;;;;;;372091;108;1962933;-73
2021/05/25 02:21:53;;;;;;;10.49;4.67;;;;;;;;;;371453;108;1961936;-72
2021/05/25 02:23:05;;;;;;;12.40;7.93;;;;;;;;;;399226;103;1985891;-72
2021/05/25 02:24:11;;;;;;;29.75;25.82;;;;;;;;;;378756;105;1962031;-73
2021/05/25 02:25:42;;;;;;;19.28;14.90;;;;;;;;;;373886;99;2007850;-71
2021/05/25 02:26:47;;;;;;;15.11;10.71;;;;;;;;;;373444;101;1960731;-74
2021/05/25 02:27:52;;;;;;;11.49;8.28;;;;;;;;;;363644;104;1960955;-73
2021/05/25 02:28:57;;;;;;;16.80;8.82;;;;;;;;;;358129;104;1960923;-72
2021/05/25 02:30:03;;;;;;;10.98;7.64;;;;;;;;;;363886;103;1960766;-73
2021/05/25 02:31:09;;;;;;;10.51;5.78;;;;;;;;;;387444;103;1963971;-71
2021/05/25 02:32:14;;;;;;;11.57;6.21;;;;;;;;;;390530;101;1962041;-75
2021/05/25 02:33:20;;;;;;;8.91;5.30;;;;;;;;;;391442;101;1963890;-72
2021/05/25 02:34:26;;;;;;;9.47;5.79;;;;;;;;;;389713;103;1962021;-72
2021/05/25 02:35:31;;;;;;;11.71;6.44;;;;;;;;;;389834;103;1963980;-73
2021/05/25 02:36:37;;;;;;;11.91;5.88;;;;;;;;;;368072;103;2282941;-73
2021/05/25 02:37:43;;;;;;;10.53;5.24;;;;;;;;;;362851;103;1961995;-73
2021/05/25 02:38:48;;;;;;;13.42;5.37;;;;;;;;;;387382;101;1963870;-73
2021/05/25 02:39:53;;;;;;;12.71;6.21;;;;;;;;;;384197;101;1965853;-73
2021/05/25 02:40:58;;;;;;;12.44;6.44;;;;;;;;;;388982;101;1962027;-71
2021/05/25 02:42:04;;;;;;;10.05;5.88;;;;;;;;;;387519;103;1962020;-73
2021/05/25 02:43:09;;;;;;;14.06;5.50;;;;;;;;;;385765;104;1961880;-71
2021/05/25 02:44:14;;;;;;;11.90;5.79;;;;;;;;;;386557;103;1961911;-72
2021/05/25 02:45:19;;;;;;;12.13;6.52;;;;;;;;;;388775;104;1961914;-72
2021/05/25 02:46:27;;;;;;;12.28;5.64;;;;;;;;;;334464;102;2800053;-72
2021/05/25 02:47:32;;;;;;;13.06;6.26;;;;;;;;;;320447;101;2191968;-70
2021/05/25 02:48:43;;;;;;;11.64;6.44;;;;;;;;;;395938;104;1985919;-72
2021/05/25 02:49:48;;;;;;;12.09;6.46;;;;;;;;;;379032;105;1960833;-72
2021/05/25 02:50:54;;;;;;;13.57;7.37;;;;;;;;;;380417;105;1961956;-72
2021/05/25 02:51:59;;;;;;;19.73;7.46;;;;;;;;;;378133;105;1962848;-72
2021/05/25 02:53:05;;;;;;;13.99;5.99;;;;;;;;;;372489;107;1961943;-72
2021/05/25 02:54:10;;;;;;;15.97;6.04;;;;;;;;;;373831;107;1961945;-73
2021/05/25 02:55:22;;;;;;;12.31;6.56;;;;;;;;;;375236;106;1962090;-71
2021/05/25 02:56:29;;;;;;;15.64;5.91;;;;;;;;;;375317;106;1962018;-72
2021/05/25 02:57:34;;;;;;;13.16;5.53;;;;;;;;;;377893;106;1961994;-70
2021/05/25 02:58:39;;;;;;;12.03;6.37;;;;;;;;;;375504;107;1961997;-73
2021/05/25 02:59:44;;;;;;;14.82;6.30;;;;;;;;;;373944;107;1961965;-72
2021/05/25 03:00:52;;;;;;;13.59;6.27;;;;;;;;;;349777;106;2894017;-73
2021/05/25 03:01:59;;;;;;;13.79;5.97;;;;;;;;;;377301;107;1962040;-73
2021/05/25 03:03:06;;;;;;;15.61;6.56;;;;;;;;;;375385;107;1961024;-73
2021/05/25 03:04:19;;;;;;;13.84;5.81;;;;;;;;;;375217;109;1994958;-72
2021/05/25 03:05:25;;;;;;;14.01;5.48;;;;;;;;;;359564;112;1963973;-73
2021/05/25 03:06:32;;;;;;;11.73;5.33;;;;;;;;;;297416;112;2162980;-72
2021/05/25 03:07:38;;;;;;;12.39;5.25;;;;;;;;;;315051;112;1983928;-73
2021/05/25 03:08:49;;;;;;;14.79;5.37;;;;;;;;;;396355;104;1985987;-73
2021/05/25 03:09:54;;;;;;;11.87;5.66;;;;;;;;;;383663;105;1963973;-73
2021/05/25 03:10:59;;;;;;;13.81;5.46;;;;;;;;;;379066;105;1963987;-72
2021/05/25 03:12:05;;;;;;;13.38;6.19;;;;;;;;;;379783;105;1963024;-73
2021/05/25 03:13:17;;;;;;;14.42;5.70;;;;;;;;;;393830;103;1985991;-73
2021/05/25 03:14:23;;;;;;;11.26;5.46;;;;;;;;;;376983;105;1960839;-73
2021/05/25 03:15:30;;;;;;;14.14;5.93;;;;;;;;;;357260;109;1961956;-74
2021/05/25 03:16:38;;;;;;;14.79;5.99;;;;;;;;;;318266;110;2802989;-73
2021/05/25 03:17:50;;;;;;;12.72;6.31;;;;;;;;;;327672;107;1989971;-74
2021/05/25 03:18:54;;;;;;;;;;;;;;;;;;368954;107;1962111;-73
2021/05/25 03:20:00;;;;;;;10.51;5.14;;;;;;;;;;368582;107;1962040;-74
2021/05/25 03:21:05;;;;;;;17.01;6.02;;;;;;;;;;367338;107;1968947;-73
2021/05/25 03:22:10;;;;;;;11.06;5.50;;;;;;;;;;367741;109;1960922;-73
2021/05/25 03:23:16;;;;;;;12.50;6.04;;;;;;;;;;369497;107;1962984;-74
2021/05/25 03:24:22;;;;;;;12.26;6.21;;;;;;;;;;367296;107;1962812;-73
2021/05/25 03:25:27;;;;;;;12.69;6.09;;;;;;;;;;369471;107;1961932;-74
2021/05/25 03:26:33;;;;;;;17.22;6.75;;;;;;;;;;328938;109;2620944;-72
2021/05/25 03:27:38;;;;;;;12.61;5.97;;;;;;;;;;320311;107;2016002;-73
2021/05/25 03:28:50;;;;;;;13.69;6.20;;;;;;;;;;391349;104;1987938;-74
2021/05/25 03:29:54;;;;;;;17.35;6.74;;;;;;;;;;374120;107;1962075;-74
2021/05/25 03:30:59;;;;;;;12.87;7.11;;;;;;;;;;376499;106;1961864;-73
2021/05/25 03:32:05;;;;;;;16.74;6.43;;;;;;;;;;375728;107;1961954;-73
2021/05/25 03:33:10;;;;;;;12.20;6.44;;;;;;;;;;375088;107;1961923;-72
2021/05/25 03:34:15;;;;;;;14.76;6.31;;;;;;;;;;376166;107;1962036;-72
2021/05/25 03:35:22;;;;;;;19.49;6.48;;;;;;;;;;375393;106;1961954;-73
2021/05/25 03:36:28;;;;;;;13.87;6.27;;;;;;;;;;321025;107;2109864;-72
2021/05/25 03:37:34;;;;;;;18.02;7.82;;;;;;;;;;343783;107;1960917;-73
2021/05/25 03:38:40;;;;;;;13.52;6.91;;;;;;;;;;374986;106;1961927;-72
2021/05/25 03:39:45;;;;;;;17.53;7.51;;;;;;;;;;377083;106;1961983;-72
2021/05/25 03:40:52;;;;;;;13.19;6.07;;;;;;;;;;374878;107;1961939;-72
2021/05/25 03:42:04;;;;;;;21.67;6.25;;;;;;;;;;344283;104;2119952;-73
2021/05/25 03:43:09;;;;;;;16.67;6.86;;;;;;;;;;373447;107;1961915;-72
2021/05/25 03:44:14;;;;;;;16.14;6.66;;;;;;;;;;375880;106;1964949;-74
2021/05/25 03:45:20;;;;;;;16.29;6.45;;;;;;;;;;375890;107;1961862;-75
2021/05/25 03:46:27;;;;;;;13.48;6.96;;;;;;;;;;376135;106;1961921;-73
2021/05/25 03:47:39;;;;;;;11.70;5.99;;;;;;;;;;348223;106;2557042;-70
2021/05/25 03:48:54;;;;;;;14.83;6.53;;;;;;;;;;303722;109;2144942;-72
2021/05/25 03:51:14;;;;;;;11.58;7.01;;;;;;;;;;355962;104;2640995;-73
2021/05/25 03:52:20;;;;;;;11.65;6.65;;;;;;;;;;339635;107;1961967;-72
2021/05/25 03:53:27;;;;;;;16.97;5.81;;;;;;;;;;369671;107;1961894;-72
2021/05/25 03:56:58;;;;;;;11.68;5.30;;;;;;;;;;355685;107;1961892;-73
2021/05/25 03:59:26;;;;;;;12.12;5.49;;;;;;;;;;370762;107;1960920;-73
2021/05/25 04:00:31;;;;;;;18.48;5.62;;;;;;;;;;372331;107;1962998;-71
2021/05/25 04:01:36;;;;;;;15.10;5.47;;;;;;;;;;364648;110;1962959;-73
2021/05/25 04:02:42;;;;;;;14.03;5.63;;;;;;;;;;370134;109;1961964;-72
2021/05/25 04:03:47;;;;;;;14.14;5.04;;;;;;;;;;368352;110;1962926;-71
2021/05/25 04:04:52;;;;;;;13.09;5.09;;;;;;;;;;372835;108;1961975;-74
2021/05/25 04:05:57;;;;;;;13.12;6.23;;;;;;;;;;372419;108;1961998;-74
2021/05/25 04:07:08;;;;;;;16.72;6.05;;;;;;;;;;392421;104;1986975;-73
2021/05/25 04:08:14;;;;;;;11.57;5.22;;;;;;;;;;370863;108;1961923;-73
2021/05/25 04:09:20;;;;;;;20.05;6.13;;;;;;;;;;304307;108;2225984;-73
2021/05/25 04:10:25;;;;;;;10.78;4.77;;;;;;;;;;337894;108;1962010;-74
2021/05/25 04:11:30;;;;;;;11.68;5.01;;;;;;;;;;333425;108;1970723;-73
2021/05/25 04:12:35;;;;;;;11.44;4.54;;;;;;;;;;324648;108;2033949;-73
2021/05/25 04:13:46;;;;;;;12.38;5.83;;;;;;;;;;379858;108;1986034;-75
2021/05/25 04:14:51;;;;;;;10.33;3.99;;;;;;;;;;364334;110;1961928;-73
2021/05/25 04:15:57;;;;;;;11.84;4.63;;;;;;;;;;365220;110;1961949;-73
2021/05/25 04:17:02;;;;;;;10.68;3.84;;;;;;;;;;360598;110;1961875;-74
2021/05/25 04:18:07;;;;;;;13.94;4.96;;;;;;;;;;362128;110;1961955;-73
2021/05/25 04:19:12;;;;;;;10.61;4.00;;;;;;;;;;365036;110;1962011;-73
2021/05/25 04:20:21;;;;;;;9.74;4.47;;;;;;;;;;357232;110;2894890;-74
2021/05/25 04:21:27;;;;;;;13.62;4.98;;;;;;;;;;363133;110;1961974;-73
2021/05/25 04:22:32;;;;;;;11.78;3.50;;;;;;;;;;359241;112;1962102;-72
2021/05/25 04:23:38;;;;;;;11.84;3.76;;;;;;;;;;355875;105;1960667;-73
2021/05/25 04:24:43;;;;;;;11.47;4.36;;;;;;;;;;351141;113;1963957;-73
2021/05/25 04:25:48;;;;;;;10.31;4.28;;;;;;;;;;353138;108;1959761;-73
2021/05/25 04:27:00;;;;;;;15.53;4.89;;;;;;;;;;393433;104;1986951;-73
2021/05/25 04:28:05;;;;;;;12.64;4.72;;;;;;;;;;368957;107;1962088;-73
2021/05/25 04:29:11;;;;;;;12.63;4.01;;;;;;;;;;321270;107;2821945;-74
2021/05/25 04:30:17;;;;;;;10.93;3.50;;;;;;;;;;349744;107;1963953;-73
2021/05/25 04:31:22;;;;;;;16.06;3.45;;;;;;;;;;367608;107;1961424;-73
2021/05/25 04:32:27;;;;;;;12.01;4.76;;;;;;;;;;368765;107;1961976;-72
2021/05/25 04:33:32;;;;;;;11.45;4.04;;;;;;;;;;361702;107;1961943;-73
2021/05/25 04:34:37;;;;;;;9.18;3.04;;;;;;;;;;358959;107;1962929;-71
2021/05/25 04:35:43;;;;;;;8.11;2.97;;;;;;;;;;369600;107;1961771;-72
2021/05/25 04:36:56;;;;;;;9.97;2.89;;;;;;;;;;381455;108;1985837;-73
2021/05/25 04:38:01;;;;;;;11.48;3.33;;;;;;;;;;363054;109;1961977;-73
2021/05/25 04:39:07;;;;;;;8.44;2.48;;;;;;;;;;325270;111;2565905;-73
2021/05/25 04:40:13;;;;;;;8.51;2.58;;;;;;;;;;338759;109;1961926;-73
2021/05/25 04:41:18;;;;;;;8.40;2.70;;;;;;;;;;354487;111;1961915;-74
2021/05/25 04:42:23;;;;;;;9.68;3.27;;;;;;;;;;355368;114;1963946;-72
2021/05/25 04:43:28;;;;;;;8.34;3.27;;;;;;;;;;354064;114;1961978;-73
2021/05/25 04:44:34;;;;;;;6.27;2.47;;;;;;;;;;361531;110;1961950;-74
2021/05/25 04:45:41;;;;;;;11.48;2.84;;;;;;;;;;361191;109;1961994;-73
2021/05/25 04:46:53;;;;;;;14.98;3.42;;;;;;;;;;365731;104;2494102;-72
2021/05/25 04:47:58;;;;;;;13.27;3.99;;;;;;;;;;331082;107;2007987;-73
2021/05/25 04:49:03;;;;;;;9.28;3.42;;;;;;;;;;318062;107;2120939;-73
2021/05/25 04:50:09;;;;;;;14.18;3.64;;;;;;;;;;351420;105;1962037;-73
2021/05/25 04:51:14;;;;;;;10.78;3.53;;;;;;;;;;374656;106;1962014;-73
2021/05/25 04:52:19;;;;;;;10.31;3.42;;;;;;;;;;374898;106;1962016;-73
2021/05/25 04:53:24;;;;;;;8.57;2.26;;;;;;;;;;367696;107;1962067;-74
2021/05/25 04:54:36;;;;;;;7.58;2.50;;;;;;;;;;382590;106;1987030;-73
2021/05/25 04:55:48;;;;;;;11.44;2.67;;;;;;;;;;404141;101;1985992;-73
2021/05/25 04:57:11;;;;;;;10.44;2.58;;;;;;;;;;382233;104;1961954;-74
2021/05/25 04:58:16;;;;;;;8.35;2.93;;;;;;;;;;378975;105;1961946;-74
2021/05/25 04:59:21;;;;;;;18.42;3.87;;;;;;;;;;369999;108;1961892;-75
2021/05/25 05:00:28;;;;;;;8.24;2.21;;;;;;;;;;378898;105;1963962;-72
2021/05/25 05:01:33;;;;;;;9.33;2.74;;;;;;;;;;371387;106;1962002;-74
2021/05/25 05:02:38;;;;;;;7.21;2.22;;;;;;;;;;372989;105;1962058;-75
2021/05/25 05:03:49;;;;;;;7.14;2.71;;;;;;;;;;341385;105;2618912;-74
2021/05/25 05:05:01;;;;;;;9.84;2.14;;;;;;;;;;397770;104;1987000;-74
2021/05/25 05:06:06;;;;;;;6.89;2.17;;;;;;;;;;381023;105;1963079;-73
2021/05/25 05:07:11;;;;;;;5.79;2.28;;;;;;;;;;378992;105;1961827;-73
2021/05/25 05:08:16;;;;;;;7.45;1.76;;;;;;;;;;376982;106;1962057;-74
2021/05/25 05:09:21;;;;;;;8.23;1.97;;;;;;;;;;372927;105;1962999;-74
2021/05/25 05:10:28;;;;;;;7.67;1.94;;;;;;;;;;375232;105;1961999;31
2021/05/25 05:11:34;;;;;;;6.96;2.23;;;;;;;;;;367585;108;1960998;-74
2021/05/25 05:12:39;;;;;;;5.52;2.13;;;;;;;;;;367952;108;1961974;-74
2021/05/25 05:13:44;;;;;;;7.45;2.07;;;;;;;;;;367247;108;1961015;-74
2021/05/25 05:14:49;;;;;;;6.99;1.88;;;;;;;;;;368111;103;1962038;-75
2021/05/25 05:15:54;;;;;;;6.44;2.92;;;;;;;;;;361472;110;1962012;-74
2021/05/25 05:16:59;;;;;;;9.37;1.87;;;;;;;;;;358837;110;1961886;-74
2021/05/25 05:18:05;;;;;;;7.42;1.68;;;;;;;;;;346438;115;1960976;-75
2021/05/25 05:19:12;;;;;;;7.61;2.13;;;;;;;;;;315679;113;2622012;-75
2021/05/25 05:20:19;;;;;;;7.97;2.17;;;;;;;;;;354497;113;1960930;-74
2021/05/25 05:21:24;;;;;;;9.30;2.84;;;;;;;;;;352957;113;1960933;-74
2021/05/25 05:22:29;;;;;;;7.08;3.00;;;;;;;;;;352113;113;1963023;-74
2021/05/25 05:23:35;;;;;;;10.57;2.76;;;;;;;;;;352387;113;1961988;-74
2021/05/25 05:24:40;;;;;;;12.51;2.28;;;;;;;;;;352033;113;1962994;-74
2021/05/25 05:25:45;;;;;;;7.33;2.13;;;;;;;;;;347317;112;1962015;-74
2021/05/25 05:26:51;;;;;;;6.25;2.01;;;;;;;;;;352108;113;1961901;-75
2021/05/25 05:27:56;;;;;;;9.93;2.67;;;;;;;;;;337997;117;1961936;-74
2021/05/25 05:29:09;;;;;;;6.17;1.81;;;;;;;;;;349366;104;2721000;-75
2021/05/25 05:30:18;;;;;;;6.43;1.76;;;;;;;;;;373434;107;1961968;-74
2021/05/25 05:31:24;;;;;;;8.62;1.79;;;;;;;;;;337978;107;2635031;-75
2021/05/25 05:32:30;;;;;;;4.13;1.63;;;;;;;;;;351402;106;1961021;-75
2021/05/25 05:33:36;;;;;;;8.26;2.57;;;;;;;;;;371026;108;1961922;-74
2021/05/25 05:34:41;;;;;;;8.99;2.15;;;;;;;;;;371497;108;1961926;-75
2021/05/25 05:35:53;;;;;;;8.31;2.75;;;;;;;;;;370759;108;1961978;-74
2021/05/25 05:36:59;;;;;;;10.89;2.03;;;;;;;;;;364828;108;1962982;-74
2021/05/25 05:38:06;;;;;;;8.39;2.57;;;;;;;;;;359646;110;1961945;-74
2021/05/25 05:39:12;;;;;;;5.68;1.89;;;;;;;;;;358620;110;1961979;-75
2021/05/25 05:40:17;;;;;;;12.54;3.83;;;;;;;;;;358627;112;1961997;-75
2021/05/25 05:41:25;;;;;;;5.87;1.57;;;;;;;;;;360381;110;1963003;-75
2021/05/25 05:42:30;;;;;;;6.80;1.82;;;;;;;;;;361112;112;1961955;-75
2021/05/25 05:43:37;;;;;;;6.16;2.02;;;;;;;;;;326310;110;1987903;-74
2021/05/25 05:44:49;;;;;;;6.51;1.38;;;;;;;;;;394396;104;2069813;-74
2021/05/25 05:45:56;;;;;;;9.02;1.91;;;;;;;;;;384082;105;1970003;-75
2021/05/25 05:47:02;;;;;;;7.07;1.72;;;;;;;;;;333061;105;2852942;-75
2021/05/25 05:48:18;;;;;;;5.16;2.00;;;;;;;;;;317909;105;2215948;-75
2021/05/25 05:49:23;;;;;;;5.63;1.78;;;;;;;;;;355504;107;1960888;-74
2021/05/25 05:50:30;;;;;;;7.40;2.66;;;;;;;;;;369532;109;1960903;-74
2021/05/25 05:51:35;;;;;;;4.83;1.46;;;;;;;;;;373737;108;1961954;-74
2021/05/25 05:52:41;;;;;;;7.44;1.59;;;;;;;;;;354491;111;1961968;-74
2021/05/25 05:53:53;;;;;;;4.82;1.18;;;;;;;;;;383208;104;2975989;-75
2021/05/25 05:54:59;;;;;;;11.78;3.43;;;;;;;;;;336153;107;2642002;-74
2021/05/25 05:56:04;;;;;;;5.92;1.86;;;;;;;;;;336558;107;2014759;-74
2021/05/25 05:57:09;;;;;;;7.99;1.88;;;;;;;;;;341309;107;1960688;-75
2021/05/25 05:58:15;;;;;;;5.29;1.59;;;;;;;;;;316257;109;2146943;-74
2021/05/25 05:59:20;;;;;;;5.32;1.33;;;;;;;;;;369679;109;1960820;-73
2021/05/25 06:00:27;;;;;;;4.81;1.24;;;;;;;;;;367810;109;1960907;-74
2021/05/25 06:01:32;;;;;;;5.78;1.57;;;;;;;;;;356323;112;1961995;-74
2021/05/25 06:02:37;;;;;;;4.87;1.02;;;;;;;;;;355087;112;1961003;-73
2021/05/25 06:03:44;;;;;;;7.20;1.58;;;;;;;;;;372002;107;1960907;-73
2021/05/25 06:04:51;;;;;;;5.66;1.16;;;;;;;;;;358434;107;2874957;-74
2021/05/25 06:05:56;;;;;;;2.96;1.07;;;;;;;;;;316098;107;2145993;-74
2021/05/25 06:07:01;;;;;;;4.78;1.35;;;;;;;;;;321939;107;2093917;-74
2021/05/25 06:08:07;;;;;;;4.75;1.49;;;;;;;;;;327506;107;2040947;-74
2021/05/25 06:09:13;;;;;;;5.13;1.49;;;;;;;;;;367862;108;1961925;-74
2021/05/25 06:10:28;;;;;;;3.63;1.24;;;;;;;;;;384541;106;1986654;-74
2021/05/25 06:11:31;;;;;;;3.24;1.14;;;;;;;;;;365179;105;1968653;-74
2021/05/25 06:12:36;;;;;;;4.38;1.76;;;;;;;;;;356245;110;1962993;-74
2021/05/25 06:13:43;;;;;;;3.62;1.44;;;;;;;;;;329958;112;2439027;-74
2021/05/25 06:14:49;;;;;;;9.92;2.06;;;;;;;;;;353129;112;1961950;-74
2021/05/25 06:15:58;;;;;;;4.11;1.36;;;;;;;;;;355083;112;1961979;-74
2021/05/25 06:17:08;;;;;;;4.75;1.69;;;;;;;;;;360104;105;2422003;-74
2021/05/25 06:18:14;;;;;;;4.92;1.83;;;;;;;;;;307580;109;2196926;-75
2021/05/25 06:19:19;;;;;;;5.79;2.10;;;;;;;;;;329492;109;1975019;-74
2021/05/25 06:20:26;;;;;;;8.08;1.56;;;;;;;;;;362662;109;1962026;-74
2021/05/25 06:21:33;;;;;;;4.50;1.36;;;;;;;;;;356325;108;1962965;31
2021/05/25 06:22:38;;;;;;;10.27;2.62;;;;;;;;;;358581;109;1961985;-74
2021/05/25 06:23:45;;;;;;;8.70;2.22;;;;;;;;;;325392;111;2889965;-76
2021/05/25 06:24:50;;;;;;;7.67;2.06;;;;;;;;;;309751;111;2394941;-74
2021/05/25 06:25:59;;;;;;;4.28;1.10;;;;;;;;;;338633;111;1963964;-74
2021/05/25 06:27:05;;;;;;;3.41;1.10;;;;;;;;;;344673;113;2874064;-75
2021/05/25 06:28:11;;;;;;;3.72;1.38;;;;;;;;;;303762;115;2774828;-74
2021/05/25 06:29:16;;;;;;;4.17;1.29;;;;;;;;;;346920;111;1964029;-75
2021/05/25 06:30:22;;;;;;;6.13;1.69;;;;;;;;;;359229;111;1961699;-74